createdAt,value
2019-02-07T00:01:57.723Z,13.33
2019-02-07T00:04:27.792Z,12.77
2019-02-07T00:06:57.267Z,12.63
2019-02-07T00:09:27.285Z,12.07
2019-02-07T00:11:57.313Z,11.97
2019-02-07T00:14:27.382Z,11.07
2019-02-07T00:16:57.341Z,12.10
2019-02-07T00:19:27.442Z,12.83
2019-02-07T00:21:57.541Z,12.87
2019-02-07T00:24:28.142Z,13.33
2019-02-07T00:26:58.323Z,12.33
2019-02-07T00:29:28.452Z,13.20
2019-02-07T00:31:58.410Z,13.37
2019-02-07T00:34:28.479Z,11.67
2019-02-07T00:36:58.447Z,12.83
2019-02-07T00:39:28.562Z,11.10
2019-02-07T00:41:58.580Z,12.87
2019-02-07T00:44:28.703Z,13.90
2019-02-07T00:46:58.810Z,13.27
2019-02-07T00:49:28.904Z,12.37
2019-02-07T00:52:01.009Z,12.27
2019-02-07T00:54:31.061Z,12.53
2019-02-07T00:57:01.077Z,12.53
2019-02-07T00:59:31.036Z,11.73
2019-02-07T01:02:01.134Z,12.93
2019-02-07T01:04:31.270Z,12.07
2019-02-07T01:07:01.312Z,11.67
2019-02-07T01:09:31.561Z,12.67
2019-02-07T01:12:01.691Z,13.43
2019-02-07T01:14:31.680Z,13.07
2019-02-07T01:17:01.871Z,12.77
2019-02-07T01:19:33.230Z,12.73
2019-02-07T01:22:04.974Z,12.40
2019-02-07T01:24:35.121Z,11.80
2019-02-07T01:27:05.216Z,12.13
2019-02-07T01:29:35.435Z,12.73
2019-02-07T01:32:05.689Z,12.93
2019-02-07T01:34:35.721Z,12.30
2019-02-07T01:37:05.809Z,12.13
2019-02-07T01:39:35.971Z,12.50
2019-02-07T01:42:06.107Z,12.80
2019-02-07T01:44:36.086Z,12.37
2019-02-07T01:47:06.548Z,12.47
2019-02-07T01:49:36.631Z,12.77
2019-02-07T01:52:07.934Z,11.83
2019-02-07T01:54:37.972Z,12.13
2019-02-07T01:57:07.952Z,12.67
2019-02-07T01:59:37.907Z,12.70
2019-02-07T02:02:07.881Z,11.07
2019-02-07T02:04:37.965Z,12.80
2019-02-07T02:07:08.124Z,11.30
2019-02-07T02:09:38.439Z,13.20
2019-02-07T02:12:08.575Z,12.17
2019-02-07T02:14:38.992Z,12.43
2019-02-07T02:17:08.972Z,12.43
2019-02-07T02:19:39.095Z,14.47
2019-02-07T02:22:09.250Z,13.60
2019-02-07T02:24:39.495Z,12.10
2019-02-07T02:27:09.722Z,12.23
2019-02-07T02:29:40.253Z,11.80
2019-02-07T02:32:10.307Z,12.63
2019-02-07T02:34:40.304Z,13.57
2019-02-07T02:37:10.387Z,13.23
2019-02-07T02:39:40.460Z,12.80
2019-02-07T02:42:10.501Z,13.30
2019-02-07T02:44:40.786Z,11.53
2019-02-07T02:47:11.066Z,13.27
2019-02-07T02:49:41.136Z,12.70
2019-02-07T02:52:11.185Z,12.97
2019-02-07T02:55:06.159Z,13.47
2019-02-07T02:57:36.184Z,14.60
2019-02-07T03:00:13.298Z,13.53
2019-02-07T03:03:02.576Z,13.93
2019-02-07T03:05:50.685Z,14.37
2019-02-07T03:08:38.384Z,12.80
2019-02-07T03:11:20.152Z,13.87
2019-02-07T03:14:08.535Z,11.17
2019-02-07T03:17:04.225Z,13.60
2019-02-07T03:19:59.722Z,12.00
2019-02-07T03:22:58.393Z,13.33
2019-02-07T03:25:42.253Z,12.70
2019-02-07T03:28:43.965Z,11.70
2019-02-07T03:31:39.398Z,13.83
2019-02-07T03:34:17.783Z,13.10
2019-02-07T03:37:05.697Z,14.63
2019-02-07T03:39:42.274Z,13.40
2019-02-07T03:42:40.847Z,13.13
2019-02-07T03:45:28.938Z,15.13
2019-02-07T03:48:14.867Z,15.67
2019-02-07T03:51:16.183Z,14.00
2019-02-07T03:54:11.528Z,16.23
2019-02-07T03:57:01.729Z,13.67
2019-02-07T04:00:01.194Z,15.80
2019-02-07T04:02:55.337Z,14.73
2019-02-07T04:05:47.814Z,14.93
2019-02-07T04:08:35.778Z,14.67
2019-02-07T04:11:34.001Z,13.80
2019-02-07T04:14:24.593Z,14.10
2019-02-07T04:17:08.685Z,14.27
2019-02-07T04:20:00.756Z,13.33
2019-02-07T04:22:42.544Z,13.70
2019-02-07T04:25:36.802Z,13.07
2019-02-07T04:28:35.048Z,14.20
2019-02-07T04:31:30.440Z,12.83
2019-02-07T04:34:13.049Z,14.07
2019-02-07T04:36:54.019Z,14.00
2019-02-07T04:39:46.373Z,12.93
2019-02-07T04:42:34.292Z,13.30
2019-02-07T04:45:30.889Z,14.13
2019-02-07T04:48:32.372Z,13.23
2019-02-07T04:51:29.063Z,13.50
2019-02-07T04:54:30.199Z,12.10
2019-02-07T04:57:19.390Z,12.67
2019-02-07T05:00:02.079Z,12.73
2019-02-07T05:03:06.643Z,13.03
2019-02-07T05:05:50.393Z,13.57
2019-02-07T05:08:57.686Z,12.53
2019-02-07T05:11:47.446Z,12.20
2019-02-07T05:14:36.590Z,13.07
2019-02-07T05:17:24.853Z,12.03
2019-02-07T05:20:14.019Z,12.93
2019-02-07T05:23:06.408Z,12.10
2019-02-07T05:26:04.991Z,12.87
2019-02-07T05:28:45.891Z,12.82
2019-02-07T05:31:35.252Z,13.10
2019-02-07T05:34:27.682Z,13.33
2019-02-07T05:37:11.290Z,14.43
2019-02-07T05:40:09.632Z,13.07
2019-02-07T05:42:50.428Z,12.47
2019-02-07T05:45:29.149Z,12.10
2019-02-07T05:48:18.388Z,11.53
2019-02-07T05:51:13.776Z,12.87
2019-02-07T05:53:51.913Z,10.73
2019-02-07T05:56:30.275Z,11.70
2019-02-07T05:59:18.413Z,11.07
2019-02-07T06:02:01.876Z,11.33
2019-02-07T06:05:06.141Z,11.20
2019-02-07T06:07:48.260Z,13.17
2019-02-07T06:10:36.161Z,10.70
2019-02-07T06:13:40.453Z,11.43
2019-02-07T06:16:28.318Z,11.33
2019-02-07T06:19:23.559Z,11.80
2019-02-07T06:22:12.798Z,11.77
2019-02-07T06:24:54.949Z,11.97
2019-02-07T06:27:50.031Z,11.90
2019-02-07T06:30:35.381Z,11.83
2019-02-07T06:33:24.783Z,11.47
2019-02-07T06:36:12.900Z,12.10
2019-02-07T06:39:04.955Z,11.63
2019-02-07T06:42:02.641Z,12.43
2019-02-07T06:44:51.423Z,11.83
2019-02-07T06:47:36.953Z,11.90
2019-02-07T06:50:29.364Z,11.43
2019-02-07T06:53:08.195Z,11.70
2019-02-07T06:55:58.036Z,13.17
2019-02-07T06:58:46.147Z,12.33
2019-02-07T07:01:34.101Z,11.67
2019-02-07T07:04:38.794Z,11.83
2019-02-07T07:07:27.922Z,11.50
2019-02-07T07:10:26.963Z,13.13
2019-02-07T07:13:07.308Z,10.30
2019-02-07T07:15:43.504Z,12.17
2019-02-07T07:18:31.588Z,11.33
2019-02-07T07:21:19.477Z,11.73
2019-02-07T07:24:07.840Z,11.73
2019-02-07T07:26:57.092Z,10.07
2019-02-07T07:29:45.024Z,11.20
2019-02-07T07:32:34.273Z,11.17
2019-02-07T07:35:13.787Z,10.77
2019-02-07T07:38:03.023Z,10.43
2019-02-07T07:40:56.791Z,10.60
2019-02-07T07:43:52.097Z,10.27
2019-02-07T07:46:40.330Z,9.10
2019-02-07T07:49:47.911Z,10.90
2019-02-07T07:52:55.283Z,9.57
2019-02-07T07:55:54.365Z,9.53
2019-02-07T07:58:38.818Z,9.73
2019-02-07T08:01:26.699Z,6.77
2019-02-07T08:04:04.532Z,10.70
2019-02-07T08:06:52.668Z,10.10
2019-02-07T08:09:35.221Z,9.87
2019-02-07T08:12:27.201Z,8.57
2019-02-07T08:15:07.237Z,9.67
2019-02-07T08:17:56.533Z,9.17
2019-02-07T08:21:00.808Z,9.97
2019-02-07T08:24:01.935Z,9.33
2019-02-07T08:26:48.137Z,8.37
2019-02-07T08:29:29.920Z,8.60
2019-02-07T08:32:08.937Z,5.00
2019-02-07T08:34:56.994Z,7.23
2019-02-07T08:38:04.585Z,7.73
2019-02-07T08:41:06.176Z,6.80
2019-02-07T08:43:55.370Z,7.10
2019-02-07T08:46:43.629Z,7.30
2019-02-07T08:49:21.590Z,8.17
2019-02-07T08:52:09.880Z,8.33
2019-02-07T08:54:50.243Z,7.23
2019-02-07T08:57:32.894Z,8.20
2019-02-07T09:00:14.985Z,6.57
2019-02-07T09:03:08.618Z,7.53
2019-02-07T09:06:16.481Z,7.20
2019-02-07T09:09:08.764Z,7.63
2019-02-07T09:11:54.117Z,7.53
2019-02-07T09:14:41.993Z,7.57
2019-02-07T09:17:40.098Z,7.50
2019-02-07T09:20:42.299Z,6.50
2019-02-07T09:23:25.793Z,6.10
2019-02-07T09:26:15.852Z,6.13
2019-02-07T09:29:01.138Z,4.30
2019-02-07T09:31:48.858Z,4.40
2019-02-07T09:34:38.150Z,3.60
2019-02-07T09:37:26.580Z,3.27
2019-02-07T09:40:22.138Z,3.70
2019-02-07T09:43:10.475Z,3.13
2019-02-07T09:46:18.317Z,3.70
2019-02-07T09:49:01.606Z,2.90
2019-02-07T09:51:48.511Z,2.73
2019-02-07T09:54:33.897Z,3.63
2019-02-07T09:57:13.418Z,2.83
2019-02-07T10:00:08.807Z,2.43
2019-02-07T10:02:47.854Z,2.40
2019-02-07T10:05:28.600Z,3.10
2019-02-07T10:08:17.892Z,2.60
2019-02-07T10:11:06.353Z,2.63
2019-02-07T10:14:07.644Z,2.30
2019-02-07T10:16:55.667Z,3.23
2019-02-07T10:19:47.679Z,4.37
2019-02-07T10:22:25.413Z,2.70
2019-02-07T10:25:08.517Z,2.10
2019-02-07T10:28:16.186Z,2.50
2019-02-07T10:31:20.817Z,2.57
2019-02-07T10:33:59.029Z,2.27
2019-02-07T10:36:41.844Z,2.23
2019-02-07T10:39:30.507Z,3.13
2019-02-07T10:42:20.138Z,1.87
2019-02-07T10:45:09.376Z,2.60
2019-02-07T10:47:57.560Z,2.33
2019-02-07T10:50:45.371Z,2.40
2019-02-07T10:53:27.290Z,3.07
2019-02-07T10:56:15.447Z,2.10
2019-02-07T10:59:03.689Z,2.37
2019-02-07T11:01:51.728Z,2.83
2019-02-07T11:04:32.602Z,1.97
2019-02-07T11:07:20.641Z,2.93
2019-02-07T11:09:59.483Z,2.37
2019-02-07T11:12:57.343Z,1.97
2019-02-07T11:15:46.575Z,2.63
2019-02-07T11:18:34.754Z,3.03
2019-02-07T11:21:27.987Z,3.40
2019-02-07T11:24:35.410Z,2.00
2019-02-07T11:27:30.254Z,2.90
2019-02-07T11:30:20.064Z,2.17
2019-02-07T11:33:15.120Z,2.00
2019-02-07T11:36:10.376Z,2.00
2019-02-07T11:38:50.631Z,1.77
2019-02-07T11:41:39.028Z,3.33
2019-02-07T11:44:40.349Z,2.00
2019-02-07T11:47:35.402Z,2.27
2019-02-07T11:50:34.607Z,2.47
2019-02-07T11:53:32.271Z,2.67
2019-02-07T11:56:20.187Z,1.77
2019-02-07T11:59:18.830Z,2.60
2019-02-07T12:02:11.674Z,2.80
2019-02-07T12:05:10.129Z,2.17
2019-02-07T12:07:58.236Z,2.60
2019-02-07T12:10:47.843Z,2.97
2019-02-07T12:13:30.667Z,2.13
2019-02-07T12:16:30.269Z,2.80
2019-02-07T12:19:18.211Z,1.87
2019-02-07T12:21:56.298Z,2.27
2019-02-07T12:24:45.537Z,2.73
2019-02-07T12:27:40.857Z,2.40
2019-02-07T12:30:50.000Z,2.97
2019-02-07T12:33:33.267Z,2.27
2019-02-07T12:36:15.806Z,2.97
2019-02-07T12:39:05.719Z,2.30
2019-02-07T12:41:54.530Z,1.93
2019-02-07T12:44:50.029Z,2.23
2019-02-07T12:47:42.307Z,1.72
2019-02-07T12:50:44.091Z,2.70
2019-02-07T12:53:30.599Z,3.07
2019-02-07T12:56:29.026Z,2.83
2019-02-07T12:59:36.737Z,2.03
2019-02-07T13:02:31.685Z,2.43
2019-02-07T13:05:27.681Z,1.83
2019-02-07T13:08:26.198Z,1.93
2019-02-07T13:11:09.209Z,2.23
2019-02-07T13:14:10.789Z,2.50
2019-02-07T13:16:59.020Z,2.63
2019-02-07T13:19:47.127Z,2.17
2019-02-07T13:22:41.959Z,3.60
2019-02-07T13:25:38.802Z,2.03
2019-02-07T13:28:22.328Z,2.07
2019-02-07T13:31:11.243Z,2.10
2019-02-07T13:33:59.017Z,2.00
2019-02-07T13:36:42.260Z,1.77
2019-02-07T13:39:31.516Z,1.93
2019-02-07T13:42:30.005Z,2.00
2019-02-07T13:45:34.302Z,1.97
2019-02-07T13:48:24.487Z,1.70
2019-02-07T13:51:12.734Z,2.90
2019-02-07T13:54:03.018Z,1.87
2019-02-07T13:56:43.566Z,2.03
2019-02-07T13:59:31.591Z,1.60
2019-02-07T14:02:39.240Z,2.00
2019-02-07T14:05:32.486Z,1.97
2019-02-07T14:08:21.730Z,2.13
2019-02-07T14:11:02.997Z,1.60
2019-02-07T14:14:01.506Z,2.10
2019-02-07T14:16:49.710Z,2.20
2019-02-07T14:19:39.620Z,2.50
2019-02-07T14:22:27.775Z,1.73
2019-02-07T14:25:15.850Z,2.00
2019-02-07T14:28:04.274Z,1.47
2019-02-07T14:30:55.719Z,1.70
2019-02-07T14:33:56.375Z,2.13
2019-02-07T14:36:45.612Z,1.90
2019-02-07T14:39:35.318Z,2.83
2019-02-07T14:42:30.550Z,1.37
2019-02-07T14:45:18.927Z,2.43
2019-02-07T14:47:48.996Z,1.90
2019-02-07T14:50:19.127Z,1.70
2019-02-07T14:52:49.440Z,1.80
2019-02-07T14:55:19.458Z,1.20
2019-02-07T14:57:49.505Z,1.87
2019-02-07T15:00:20.790Z,1.80
2019-02-07T15:02:51.106Z,2.33
2019-02-07T15:05:22.137Z,2.07
2019-02-07T15:07:52.934Z,2.13
2019-02-07T15:10:24.162Z,2.33
2019-02-07T15:12:54.824Z,4.40
2019-02-07T15:15:25.643Z,3.00
2019-02-07T15:17:56.406Z,1.40
2019-02-07T15:20:27.172Z,2.53
2019-02-07T15:22:58.209Z,2.13
2019-02-07T15:25:28.949Z,1.60
2019-02-07T15:28:00.164Z,1.83
2019-02-07T15:30:32.023Z,2.13
2019-02-07T15:33:02.862Z,1.70
2019-02-07T15:35:36.142Z,1.50
2019-02-07T15:38:06.866Z,1.57
2019-02-07T15:40:37.637Z,1.47
2019-02-07T15:43:08.408Z,1.73
2019-02-07T15:45:39.651Z,1.77
2019-02-07T15:48:10.436Z,1.37
2019-02-07T15:50:41.466Z,1.47
2019-02-07T15:53:12.550Z,1.47
2019-02-07T15:55:44.559Z,1.60
2019-02-07T15:58:15.228Z,1.37
2019-02-07T16:00:53.585Z,1.20
2019-02-07T16:03:42.966Z,1.43
2019-02-07T16:06:13.757Z,1.43
2019-02-07T16:08:44.466Z,1.50
2019-02-07T16:11:15.242Z,1.37
2019-02-07T16:13:46.105Z,1.40
2019-02-07T16:16:16.954Z,1.30
2019-02-07T16:18:47.584Z,1.00
2019-02-07T16:21:18.277Z,2.23
2019-02-07T16:23:49.000Z,1.50
2019-02-07T16:26:19.685Z,1.23
2019-02-07T16:28:50.564Z,1.73
2019-02-07T16:31:21.364Z,1.13
2019-02-07T16:33:52.155Z,1.23
2019-02-07T16:36:23.108Z,1.70
2019-02-07T16:38:54.040Z,1.20
2019-02-07T16:41:24.889Z,1.47
2019-02-07T16:43:56.895Z,1.63
2019-02-07T16:46:27.698Z,1.53
2019-02-07T16:48:58.401Z,1.20
2019-02-07T16:51:29.693Z,1.33
2019-02-07T16:54:00.331Z,1.27
2019-02-07T16:56:30.984Z,1.57
2019-02-07T16:59:01.662Z,1.97
2019-02-07T17:01:32.454Z,2.17
2019-02-07T17:04:03.328Z,1.13
2019-02-07T17:06:34.053Z,1.00
2019-02-07T17:09:16.182Z,1.40
2019-02-07T17:11:47.023Z,1.07
2019-02-07T17:14:17.877Z,1.20
2019-02-07T17:16:48.994Z,1.03
2019-02-07T17:19:19.737Z,1.50
2019-02-07T17:21:51.406Z,1.27
2019-02-07T17:24:22.219Z,1.10
2019-02-07T17:26:53.072Z,1.20
2019-02-07T17:29:24.313Z,1.45
2019-02-07T17:31:55.186Z,0.97
2019-02-07T17:34:26.062Z,1.43
2019-02-07T17:36:56.884Z,1.07
2019-02-07T17:39:27.650Z,0.90
2019-02-07T17:41:59.623Z,1.37
2019-02-07T17:44:33.070Z,0.90
2019-02-07T17:47:03.870Z,0.90
2019-02-07T17:49:34.622Z,1.13
2019-02-07T17:52:05.413Z,1.40
2019-02-07T17:54:36.157Z,1.20
2019-02-07T17:57:06.936Z,0.80
2019-02-07T17:59:37.717Z,1.00
2019-02-07T18:02:10.168Z,0.80
2019-02-07T18:04:40.977Z,1.40
2019-02-07T18:07:11.786Z,0.60
2019-02-07T18:09:42.883Z,0.80
2019-02-07T18:12:13.583Z,0.60
2019-02-07T18:14:44.631Z,0.87
2019-02-07T18:17:15.626Z,0.20
2019-02-07T18:19:46.386Z,0.50
2019-02-07T18:22:17.302Z,0.50
2019-02-07T18:24:49.758Z,0.47
2019-02-07T18:27:20.393Z,0.53
2019-02-07T18:29:51.178Z,0.50
2019-02-07T18:32:21.994Z,0.23
2019-02-07T18:34:53.887Z,1.00
2019-02-07T18:37:24.634Z,0.90
2019-02-07T18:39:55.558Z,0.60
2019-02-07T18:42:26.386Z,0.40
2019-02-07T18:45:00.985Z,0.93
2019-02-07T18:47:30.084Z,0.60
2019-02-07T18:50:01.399Z,1.10
2019-02-07T18:52:32.367Z,0.80
2019-02-07T18:55:04.536Z,0.80
2019-02-07T18:57:35.751Z,1.13
2019-02-07T19:00:08.035Z,0.90
2019-02-07T19:02:39.610Z,0.90
2019-02-07T19:05:13.649Z,0.70
2019-02-07T19:07:45.531Z,1.10
2019-02-07T19:10:16.687Z,1.10
2019-02-07T19:12:46.722Z,0.90
2019-02-07T19:15:21.850Z,0.90
2019-02-07T19:17:51.875Z,0.73
2019-02-07T19:20:22.083Z,1.13
2019-02-07T19:22:52.315Z,0.90
2019-02-07T19:25:22.340Z,0.53
2019-02-07T19:27:52.587Z,0.90
2019-02-07T19:30:23.882Z,0.73
2019-02-07T19:32:53.876Z,0.60
2019-02-07T19:35:23.936Z,1.33
2019-02-07T19:37:54.218Z,0.70
2019-02-07T19:40:25.586Z,0.70
2019-02-07T19:42:56.183Z,0.90
2019-02-07T19:45:26.422Z,1.23
2019-02-07T19:47:56.558Z,1.37
2019-02-07T19:50:26.789Z,0.70
2019-02-07T19:52:56.883Z,0.90
2019-02-07T19:55:28.435Z,0.80
2019-02-07T19:57:58.765Z,0.80
2019-02-07T20:00:29.710Z,0.87
2019-02-07T20:02:59.859Z,1.00
2019-02-07T20:05:30.251Z,0.90
2019-02-07T20:08:01.007Z,0.90
2019-02-07T20:10:32.011Z,0.80
2019-02-07T20:13:02.116Z,0.83
2019-02-07T20:15:33.189Z,0.97
2019-02-07T20:18:04.582Z,0.60
2019-02-07T20:20:34.648Z,0.50
2019-02-07T20:23:04.705Z,0.90
2019-02-07T20:25:35.006Z,1.03
2019-02-07T20:28:05.719Z,1.13
2019-02-07T20:30:37.024Z,0.93
2019-02-07T20:33:07.799Z,0.83
2019-02-07T20:35:37.796Z,0.77
2019-02-07T20:38:08.515Z,0.97
2019-02-07T20:40:38.534Z,0.97
2019-02-07T20:43:08.659Z,1.30
2019-02-07T20:45:38.822Z,1.70
2019-02-07T20:48:09.279Z,1.60
2019-02-07T20:50:39.344Z,1.30
2019-02-07T20:53:10.403Z,1.53
2019-02-07T20:55:40.414Z,1.30
2019-02-07T20:58:10.764Z,2.00
2019-02-07T21:00:40.805Z,1.80
2019-02-07T21:03:10.924Z,1.23
2019-02-07T21:05:41.066Z,1.57
2019-02-07T21:08:11.220Z,1.67
2019-02-07T21:10:41.335Z,1.67
2019-02-07T21:13:11.841Z,1.43
2019-02-07T21:15:41.894Z,1.82
2019-02-07T21:18:11.874Z,1.47
2019-02-07T21:20:41.926Z,1.47
2019-02-07T21:23:11.988Z,1.73
2019-02-07T21:25:49.340Z,1.47
2019-02-07T21:28:19.558Z,1.70
2019-02-07T21:30:49.682Z,1.53
2019-02-07T21:33:19.642Z,1.70
2019-02-07T21:35:49.741Z,2.20
2019-02-07T21:38:19.925Z,2.37
2019-02-07T21:40:50.131Z,2.00
2019-02-07T21:43:20.237Z,2.33
2019-02-07T21:45:50.400Z,2.30
2019-02-07T21:48:20.559Z,1.83
2019-02-07T21:50:50.547Z,1.77
2019-02-07T21:53:20.625Z,2.20
2019-02-07T21:55:50.729Z,1.97
2019-02-07T21:58:20.873Z,2.10
2019-02-07T22:00:50.970Z,2.57
2019-02-07T22:03:21.117Z,1.77
2019-02-07T22:05:51.359Z,1.87
2019-02-07T22:08:21.426Z,2.03
2019-02-07T22:10:51.395Z,3.07
2019-02-07T22:13:21.442Z,3.63
2019-02-07T22:15:51.634Z,2.20
2019-02-07T22:18:21.991Z,1.97
2019-02-07T22:20:52.124Z,2.60
2019-02-07T22:23:22.182Z,2.13
2019-02-07T22:25:52.427Z,1.90
2019-02-07T22:28:22.635Z,2.23
2019-02-07T22:30:52.666Z,2.47
2019-02-07T22:33:22.637Z,1.87
2019-02-07T22:35:52.629Z,1.93
2019-02-07T22:38:22.700Z,2.30
2019-02-07T22:40:53.129Z,2.03
2019-02-07T22:43:23.158Z,2.20
2019-02-07T22:45:53.146Z,2.00
2019-02-07T22:48:23.172Z,1.97
2019-02-07T22:50:53.263Z,1.40
2019-02-07T22:53:23.376Z,3.00
2019-02-07T22:55:53.405Z,1.90
2019-02-07T22:58:24.225Z,2.57
2019-02-07T23:01:13.487Z,1.87
2019-02-07T23:03:47.863Z,2.10
2019-02-07T23:06:18.052Z,2.20
2019-02-07T23:08:48.238Z,2.00
2019-02-07T23:11:18.408Z,2.47
2019-02-07T23:13:48.837Z,1.77
2019-02-07T23:16:18.926Z,2.23
2019-02-07T23:18:49.382Z,1.67
2019-02-07T23:21:19.659Z,2.13
2019-02-07T23:23:49.665Z,2.03
2019-02-07T23:26:19.705Z,1.87
2019-02-07T23:28:49.813Z,2.10
2019-02-07T23:31:19.864Z,2.10
2019-02-07T23:33:49.904Z,2.53
2019-02-07T23:36:20.076Z,2.30
2019-02-07T23:38:50.173Z,2.08
2019-02-07T23:41:20.216Z,1.97
2019-02-07T23:43:50.347Z,1.83
2019-02-07T23:46:20.439Z,1.97
2019-02-07T23:48:50.513Z,2.50
2019-02-07T23:51:20.650Z,1.77
2019-02-07T23:53:51.129Z,2.50
2019-02-07T23:56:21.194Z,1.97
2019-02-07T23:58:51.392Z,2.67
